Time;durP1;ratioP1;P1;durP2;ratioP2;P2;SDS_P1;SDS_P2;PMS_P1;PMS_P2;Temp;Humidity;BMP_temperature;BMP_pressure;BME280_temperature;BME280_humidity;BME280_pressure;Samples;Min_cycle;Max_cycle;Signal;HPM_P1;HPM_P2
2022/12/12 00:02:21;;;;;;;2.77;1.47;;;1.80;99.90;0.90;99042;;;;573946;246;25093;-85
2022/12/12 00:04:49;;;;;;;7.33;1.37;;;1.80;99.90;0.90;99024;;;;573841;246;24039;-80
2022/12/12 00:07:17;;;;;;;1.37;1.10;;;1.80;99.90;0.90;99026;;;;573895;246;24047;-84
2022/12/12 00:09:45;;;;;;;2.07;1.20;;;1.80;99.90;1.00;99047;;;;573948;246;24047;-82
2022/12/12 00:12:13;;;;;;;3.13;1.43;;;1.80;99.90;1.00;99028;;;;573835;246;24174;-86
2022/12/12 00:14:41;;;;;;;2.10;0.80;;;1.90;99.90;1.00;99021;;;;572928;246;24075;-84
2022/12/12 00:17:08;;;;;;;2.43;1.30;;;1.90;99.90;1.00;99010;;;;572794;246;24060;-80
2022/12/12 00:19:37;;;;;;;1.60;1.20;;;1.90;99.90;1.00;99031;;;;572958;246;24067;-80
2022/12/12 00:22:05;;;;;;;1.00;1.00;;;1.90;99.90;1.00;99033;;;;572746;246;24102;-87
2022/12/12 00:24:33;;;;;;;2.73;1.00;;;1.90;99.90;1.10;99030;;;;572921;246;24095;-79
2022/12/12 00:27:01;;;;;;;1.00;1.00;;;1.90;99.90;1.10;99025;;;;572857;246;24056;-79
2022/12/12 00:29:29;;;;;;;2.47;0.97;;;2.00;99.90;1.10;99025;;;;572703;246;24110;-80
2022/12/12 00:32:00;;;;;;;0.73;0.73;;;2.00;99.90;1.10;99032;;;;572676;246;25113;-80
2022/12/12 00:34:24;;;;;;;1.27;1.17;;;2.00;99.90;1.10;99034;;;;572291;246;24056;-80
2022/12/12 00:36:52;;;;;;;1.80;1.10;;;2.00;99.90;1.10;99050;;;;572463;246;24053;-80
2022/12/12 00:39:22;;;;;;;1.97;0.87;;;2.00;99.90;1.10;99035;;;;572563;246;24045;-80
2022/12/12 00:41:48;;;;;;;5.70;1.27;;;2.00;99.90;1.10;99033;;;;572901;246;24061;-81
2022/12/12 00:44:17;;;;;;;2.53;1.13;;;2.00;99.90;1.10;99037;;;;572941;246;24084;-82
2022/12/12 00:46:44;;;;;;;3.03;1.10;;;2.00;99.90;1.10;99044;;;;581632;246;24093;-81
2022/12/12 00:49:16;;;;;;;1.40;1.10;;;2.00;99.90;1.10;99054;;;;581710;246;24107;-79
2022/12/12 00:51:40;;;;;;;1.97;1.17;;;2.10;99.90;1.10;99038;;;;572641;246;24059;-79
2022/12/12 00:54:08;;;;;;;4.53;1.37;;;2.00;99.90;1.10;99059;;;;572856;246;24082;-80
2022/12/12 00:56:36;;;;;;;1.77;1.10;;;2.00;99.90;1.10;99039;;;;571527;246;24080;-80
2022/12/12 00:59:06;;;;;;;2.67;1.10;;;1.90;99.90;1.10;99052;;;;572882;246;24077;-82
2022/12/12 01:01:31;;;;;;;0.83;0.83;;;2.00;99.90;1.10;99068;;;;572561;246;24060;-81
2022/12/12 01:04:03;;;;;;;2.90;1.10;;;2.00;99.90;1.10;99057;;;;581670;246;24076;-81
2022/12/12 01:06:28;;;;;;;1.40;1.07;;;2.00;99.90;1.10;99060;;;;572365;246;24159;-83
2022/12/12 01:08:56;;;;;;;2.00;1.07;;;2.00;99.90;1.10;99057;;;;574030;245;24062;-80
2022/12/12 01:11:27;;;;;;;2.80;1.20;;;2.00;99.90;1.20;99054;;;;573816;246;24073;-80
2022/12/12 01:13:55;;;;;;;2.43;1.40;;;2.10;99.90;1.20;99049;;;;579257;244;24058;-81
2022/12/12 01:16:20;;;;;;;1.73;1.23;;;2.10;99.90;1.20;99053;;;;571422;246;24067;-81
2022/12/12 01:18:47;;;;;;;2.20;1.47;;;2.10;99.90;1.20;99048;;;;573123;246;24073;-81
2022/12/12 01:21:15;;;;;;;1.53;1.33;;;2.10;99.90;1.20;99032;;;;573016;246;24043;-80
2022/12/12 01:23:43;;;;;;;3.07;1.27;;;2.10;99.90;1.20;99023;;;;573054;246;24052;-80
2022/12/12 01:26:15;;;;;;;1.83;1.20;;;2.10;99.90;1.20;99018;;;;572772;246;24073;-85
2022/12/12 01:28:42;;;;;;;2.33;1.13;;;2.10;99.90;1.10;99018;;;;571049;246;24059;-80
2022/12/12 01:31:07;;;;;;;1.90;1.37;;;2.10;99.90;1.10;99025;;;;572598;246;24071;-81
2022/12/12 01:33:35;;;;;;;5.13;1.47;;;2.00;99.90;1.10;99020;;;;571410;246;24110;-81
2022/12/12 01:36:03;;;;;;;1.90;1.37;;;2.00;99.90;1.10;99020;;;;572900;246;24044;-82
2022/12/12 01:38:33;;;;;;;2.50;1.47;;;2.10;99.90;1.10;99023;;;;571431;246;24146;-81
2022/12/12 01:40:59;;;;;;;2.90;1.60;;;2.00;99.90;1.10;99017;;;;572975;246;24063;-81
2022/12/12 01:43:26;;;;;;;3.17;1.53;;;2.00;99.90;1.10;99026;;;;572893;246;24051;-81
2022/12/12 01:46:01;;;;;;;1.00;1.00;;;2.00;99.90;1.10;99020;;;;572831;246;24213;-81
2022/12/12 01:48:40;;;;;;;1.70;1.17;;;2.00;99.90;1.10;99017;;;;571569;246;24078;-84
2022/12/12 01:51:15;;;;;;;1.23;1.20;;;2.00;99.90;1.10;99022;;;;580330;246;24103;-82
2022/12/12 01:53:43;;;;;;;3.77;1.43;;;2.00;99.90;1.10;99006;;;;571322;246;24060;-84
2022/12/12 01:56:11;;;;;;;2.43;1.10;;;2.00;99.90;1.10;99016;;;;572856;246;24117;-83
2022/12/12 01:58:39;;;;;;;1.90;1.70;;;2.00;99.90;1.10;99012;;;;572852;246;24067;-85
2022/12/12 02:01:07;;;;;;;2.20;1.40;;;2.00;99.90;1.10;99012;;;;572833;246;24125;-83
2022/12/12 02:03:36;;;;;;;4.70;1.90;;;2.00;99.90;1.00;99002;;;;571541;246;24107;-84
2022/12/12 02:06:04;;;;;;;1.67;1.43;;;1.90;99.90;1.00;98986;;;;572971;246;24047;-84
2022/12/12 02:08:32;;;;;;;4.00;1.60;;;1.90;99.90;1.00;98996;;;;571493;246;24110;-84
2022/12/12 02:11:02;;;;;;;3.23;1.10;;;1.90;99.90;1.00;98990;;;;572822;246;24055;-79
2022/12/12 02:13:27;;;;;;;3.30;2.13;;;1.90;99.90;0.90;98988;;;;579336;244;24068;-80
2022/12/12 02:16:05;;;;;;;5.03;1.57;;;1.80;99.90;0.80;98985;;;;572863;246;24094;-82
2022/12/12 02:19:01;;;;;;;2.30;1.40;;;1.70;99.90;0.80;98975;;;;582905;245;24077;-80
2022/12/12 02:21:50;;;;;;;2.53;1.00;;;1.70;99.90;0.80;98974;;;;573845;246;24072;-81
2022/12/12 02:24:58;;;;;;;2.33;1.23;;;1.70;99.90;0.80;98979;;;;561160;251;25136;-79
2022/12/12 02:27:44;;;;;;;1.93;0.90;;;1.70;99.90;0.80;98985;;;;568545;246;35023;-83
2022/12/12 02:30:24;;;;;;;0.50;0.50;;;1.70;99.90;0.70;98978;;;;572802;246;24044;-80
2022/12/12 02:32:58;;;;;;;0.73;0.73;;;1.70;99.90;0.70;98966;;;;571631;246;25101;-81
2022/12/12 02:35:34;;;;;;;3.13;1.13;;;1.60;99.90;0.60;98971;;;;571706;246;24137;-81
2022/12/12 02:38:27;;;;;;;1.33;1.23;;;1.50;99.90;0.60;98972;;;;573044;246;24083;-82
2022/12/12 02:41:07;;;;;;;1.87;1.20;;;1.50;99.90;0.60;98973;;;;572806;246;24159;-82
2022/12/12 02:43:55;;;;;;;1.50;1.17;;;1.50;99.90;0.50;98963;;;;581627;246;24128;-81
2022/12/12 02:46:47;;;;;;;1.80;1.20;;;1.40;99.90;0.60;98978;;;;573193;246;24056;-85
2022/12/12 02:49:18;;;;;;;1.60;1.50;;;1.50;99.90;0.60;98968;;;;569214;246;24103;-84
2022/12/12 02:51:50;;;;;;;1.07;1.00;;;1.60;99.90;0.70;98968;;;;581332;246;25106;-81
2022/12/12 02:54:17;;;;;;;2.33;1.40;;;1.60;99.90;0.70;98971;;;;579387;246;24105;-86
2022/12/12 02:56:58;;;;;;;1.73;1.37;;;1.60;99.90;0.70;98975;;;;579655;246;24067;-85
2022/12/12 02:59:34;;;;;;;3.40;1.20;;;1.60;99.90;0.80;98962;;;;571539;246;24037;-84
2022/12/12 03:02:15;;;;;;;2.13;1.60;;;1.70;99.90;0.80;98954;;;;560681;252;24081;-85
2022/12/12 03:08:22;;;;;;;2.37;1.20;;;1.70;99.90;0.80;98958;;;;564248;250;24242;-84
2022/12/12 03:10:53;;;;;;;3.50;1.47;;;1.70;99.90;0.80;98957;;;;568865;246;24062;-85
2022/12/12 03:13:42;;;;;;;3.57;1.20;;;1.70;99.90;0.70;98964;;;;572776;246;24064;-86
2022/12/12 03:16:25;;;;;;;1.17;1.13;;;1.60;99.90;0.70;98973;;;;571744;246;24061;-86
2022/12/12 03:19:07;;;;;;;2.07;1.50;;;1.60;99.90;0.70;98957;;;;572441;246;24079;-86
2022/12/12 03:21:38;;;;;;;1.93;1.03;;;1.70;99.90;0.80;98962;;;;572564;246;24076;-86
2022/12/12 03:24:08;;;;;;;1.27;0.93;;;1.60;99.90;0.70;98957;;;;581697;246;24072;-86
2022/12/12 03:26:39;;;;;;;1.93;1.20;;;1.60;99.90;0.70;98949;;;;581161;246;24071;-85
2022/12/12 03:29:16;;;;;;;1.30;1.17;;;1.60;99.90;0.70;98953;;;;570543;246;24072;-85
2022/12/12 03:31:44;;;;;;;4.20;1.63;;;1.60;99.90;0.70;98943;;;;581663;246;24122;-85
2022/12/12 03:34:21;;;;;;;2.50;1.40;;;1.60;99.90;0.60;98949;;;;573273;246;24085;-85
2022/12/12 03:36:49;;;;;;;1.53;1.03;;;1.50;99.90;0.60;98947;;;;573226;246;24094;-84
2022/12/12 03:39:32;;;;;;;2.83;1.30;;;1.50;99.90;0.60;98940;;;;581143;246;24119;-84
2022/12/12 03:42:03;;;;;;;6.17;1.30;;;1.50;99.90;0.60;98948;;;;559411;251;24105;-80
2022/12/12 03:44:33;;;;;;;1.77;1.30;;;1.50;99.90;0.60;98943;;;;572470;246;24054;-80
2022/12/12 03:47:01;;;;;;;2.33;1.53;;;1.50;99.90;0.60;98938;;;;578709;246;24177;-80
2022/12/12 03:49:35;;;;;;;1.57;1.43;;;1.50;99.90;0.60;98940;;;;572941;246;24056;-81
2022/12/12 03:52:03;;;;;;;1.83;1.10;;;1.60;99.90;0.60;98928;;;;573219;246;25100;-81
2022/12/12 03:54:31;;;;;;;3.33;1.73;;;1.60;99.90;0.60;98929;;;;581166;246;24108;-81
2022/12/12 03:57:05;;;;;;;1.90;1.33;;;1.50;99.90;0.60;98947;;;;571738;246;25094;-81
2022/12/12 03:59:41;;;;;;;3.83;1.47;;;1.50;99.90;0.60;98928;;;;581545;246;24129;-80
2022/12/12 04:02:24;;;;;;;1.53;1.30;;;1.60;99.90;0.70;98928;;;;573229;246;24078;-80
2022/12/12 04:05:16;;;;;;;2.13;1.40;;;1.60;99.90;0.60;98933;;;;571616;246;24135;-80
2022/12/12 04:07:44;;;;;;;4.40;3.30;;;1.50;99.90;0.60;98927;;;;571487;246;25102;-80
2022/12/12 04:13:28;;;;;;;5.00;2.23;;;1.50;99.90;0.60;98926;;;;572454;246;24088;-82
2022/12/12 04:16:08;;;;;;;4.77;2.50;;;1.50;99.90;0.50;98937;;;;578842;246;24071;-80
2022/12/12 04:18:54;;;;;;;2.10;1.90;;;1.40;99.90;0.50;98929;;;;571235;246;24101;-81
2022/12/12 04:24:34;;;;;;;4.10;2.27;;;1.50;99.90;0.60;98916;;;;581756;246;24071;-80
2022/12/12 04:27:05;;;;;;;6.93;2.30;;;1.50;99.90;0.60;98910;;;;566766;246;37956;-81
2022/12/12 04:29:38;;;;;;;6.72;1.98;;;1.50;99.90;0.60;98912;;;;567438;246;35117;-80
2022/12/12 04:32:21;;;;;;;1.10;0.90;;;1.60;99.90;0.70;98913;;;;572868;246;24054;-81
2022/12/12 04:35:04;;;;;;;1.37;1.27;;;1.60;99.90;0.70;98917;;;;571410;246;24084;-81
2022/12/12 04:37:32;;;;;;;0.97;0.90;;;1.60;99.90;0.70;98910;;;;571599;246;24091;-81
2022/12/12 04:40:00;;;;;;;2.97;1.43;;;1.60;99.90;0.70;98909;;;;572756;244;24047;-82
2022/12/12 04:42:27;;;;;;;5.43;1.97;;;1.60;99.90;0.70;98909;;;;574303;246;24237;-83
2022/12/12 04:44:55;;;;;;;5.23;1.60;;;1.70;99.90;0.80;98905;;;;573222;246;24108;-84
2022/12/12 04:47:23;;;;;;;2.70;1.53;;;1.60;99.90;0.80;98910;;;;572870;246;24094;-81
2022/12/12 04:49:51;;;;;;;3.80;1.50;;;1.70;99.90;0.80;98900;;;;572262;246;24061;-83
2022/12/12 04:52:20;;;;;;;1.87;1.63;;;1.70;99.90;0.80;98896;;;;573204;246;24060;-84
2022/12/12 04:54:50;;;;;;;1.67;1.40;;;1.70;99.90;0.80;98896;;;;572977;246;24082;-85
2022/12/12 04:57:21;;;;;;;1.40;1.30;;;1.70;99.90;0.80;98894;;;;573013;246;24086;-83
2022/12/12 04:59:54;;;;;;;1.50;1.40;;;1.70;99.90;0.70;98877;;;;572416;246;24077;-85
2022/12/12 05:02:43;;;;;;;3.97;1.50;;;1.70;99.90;0.70;98880;;;;572867;246;24061;-87
2022/12/12 05:05:26;;;;;;;1.57;1.17;;;1.60;99.90;0.50;98879;;;;573076;246;24063;-83
2022/12/12 05:07:59;;;;;;;2.70;2.00;;;1.50;99.90;0.40;98883;;;;571317;246;24062;-85
2022/12/12 05:10:27;;;;;;;3.77;2.20;;;1.40;99.90;0.40;98889;;;;581844;246;24061;-84
2022/12/12 05:13:02;;;;;;;2.43;1.80;;;1.30;99.90;0.40;98886;;;;573103;246;24060;-84
2022/12/12 05:15:30;;;;;;;3.07;2.07;;;1.30;99.90;0.30;98892;;;;572019;246;24118;-84
2022/12/12 05:18:00;;;;;;;2.77;1.73;;;1.30;99.90;0.30;98892;;;;581989;246;24163;-85
2022/12/12 05:20:28;;;;;;;3.17;2.53;;;1.20;99.90;0.20;98900;;;;571306;246;24098;-85
2022/12/12 05:22:57;;;;;;;5.47;2.90;;;1.10;99.90;0.20;98894;;;;581314;241;24050;-81
2022/12/12 05:25:25;;;;;;;2.67;2.00;;;1.10;99.90;0.10;98893;;;;572471;246;24065;-83
2022/12/12 05:27:54;;;;;;;2.87;2.17;;;1.00;99.90;0.00;98891;;;;572644;246;24048;-83
2022/12/12 05:30:25;;;;;;;4.17;1.90;;;0.90;99.90;-0.10;98897;;;;572386;246;24056;-83
2022/12/12 05:32:52;;;;;;;3.23;2.10;;;0.90;99.90;-0.10;98896;;;;572315;246;24064;-82
2022/12/12 05:35:21;;;;;;;2.40;2.30;;;0.90;99.90;0.00;98897;;;;572620;246;24056;-82
2022/12/12 05:37:52;;;;;;;4.97;1.90;;;0.90;99.90;0.00;98897;;;;572876;246;24083;-82
2022/12/12 05:40:20;;;;;;;2.70;2.23;;;0.90;99.90;0.00;98899;;;;581285;246;24052;-81
2022/12/12 05:42:48;;;;;;;5.07;2.27;;;1.00;99.90;0.00;98892;;;;571144;246;24058;-86
2022/12/12 05:45:16;;;;;;;2.50;1.97;;;1.00;99.90;0.00;98891;;;;572883;246;24049;-83
2022/12/12 05:47:44;;;;;;;4.97;3.73;;;1.00;99.90;0.00;98888;;;;572505;246;24053;-83
2022/12/12 05:50:12;;;;;;;6.53;4.50;;;1.00;99.90;0.00;98888;;;;572655;246;24091;-84
2022/12/12 05:52:41;;;;;;;8.63;5.13;;;1.00;99.90;0.00;98883;;;;573322;246;24066;-84
2022/12/12 05:55:09;;;;;;;5.23;3.00;;;0.90;99.90;0.00;98887;;;;573580;246;24083;-83
2022/12/12 05:57:37;;;;;;;3.60;2.80;;;1.00;99.90;0.00;98886;;;;573491;246;24149;-80
2022/12/12 06:00:09;;;;;;;1.67;1.57;;;1.00;99.90;0.10;98889;;;;573170;246;24051;-81
2022/12/12 06:02:33;;;;;;;4.67;1.97;;;1.00;99.90;0.00;98886;;;;572804;246;24054;-84
2022/12/12 06:05:02;;;;;;;5.87;3.47;;;1.00;99.90;0.00;98879;;;;573072;246;24058;-85
2022/12/12 06:07:30;;;;;;;4.93;2.87;;;1.00;99.90;0.00;98880;;;;573216;246;24063;-84
2022/12/12 06:09:58;;;;;;;3.17;2.40;;;1.00;99.90;0.00;98881;;;;573057;246;24064;-84
2022/12/12 06:12:26;;;;;;;2.10;1.90;;;1.00;99.90;0.00;98884;;;;572668;242;24094;-84
2022/12/12 06:14:54;;;;;;;1.97;1.63;;;1.00;99.90;0.00;98892;;;;572888;246;24079;-84
2022/12/12 06:17:22;;;;;;;1.70;1.60;;;1.00;99.90;0.00;98900;;;;572842;246;24068;-81
2022/12/12 06:19:50;;;;;;;2.17;1.70;;;0.90;99.90;0.00;98894;;;;572908;246;24035;-85
2022/12/12 06:22:18;;;;;;;2.73;1.83;;;1.00;99.90;0.00;98889;;;;571512;246;24073;-82
2022/12/12 06:24:46;;;;;;;2.07;1.87;;;0.90;99.90;0.00;98892;;;;573262;246;25075;-83
2022/12/12 06:27:14;;;;;;;2.23;1.90;;;1.00;99.90;0.00;98893;;;;572794;246;24055;-85
2022/12/12 06:29:43;;;;;;;1.87;1.70;;;1.00;99.90;0.10;98900;;;;572485;246;24107;-85
2022/12/12 06:32:10;;;;;;;2.50;1.80;;;1.00;99.90;0.10;98893;;;;572674;246;24066;-85
2022/12/12 06:34:38;;;;;;;2.07;1.93;;;1.00;99.90;0.10;98892;;;;572539;246;24034;-85
2022/12/12 06:37:06;;;;;;;5.53;1.57;;;1.10;99.90;0.10;98890;;;;572743;246;24063;-84
2022/12/12 06:39:34;;;;;;;2.33;1.60;;;1.00;99.90;0.00;98876;;;;571326;246;24109;-86
2022/12/12 06:42:02;;;;;;;2.13;1.60;;;1.00;99.90;-0.10;98875;;;;572459;246;24231;-81
2022/12/12 06:44:30;;;;;;;2.30;1.80;;;0.90;99.90;-0.10;98871;;;;572708;246;24110;-83
2022/12/12 06:46:58;;;;;;;3.90;3.03;;;0.90;99.90;-0.20;98869;;;;571519;246;24078;-85
2022/12/12 06:49:26;;;;;;;4.77;3.00;;;0.80;99.90;-0.20;98871;;;;572691;246;24160;-84
2022/12/12 06:51:54;;;;;;;5.17;3.37;;;0.80;99.90;-0.10;98861;;;;572618;246;24049;-86
2022/12/12 06:54:22;;;;;;;8.40;4.73;;;0.80;99.90;-0.10;98870;;;;572958;246;24067;-81
2022/12/12 06:56:49;;;;;;;8.17;3.63;;;0.90;99.90;0.00;98862;;;;572490;246;24127;-81
2022/12/12 06:59:17;;;;;;;6.87;3.77;;;0.90;99.90;0.00;98863;;;;572386;246;24049;-81
2022/12/12 07:01:45;;;;;;;9.00;5.73;;;1.00;99.90;0.10;98869;;;;572638;246;24049;-82
2022/12/12 07:04:13;;;;;;;7.57;3.80;;;1.00;99.90;0.10;98858;;;;573305;246;24047;-85
2022/12/12 07:06:41;;;;;;;5.30;3.87;;;1.10;99.90;0.20;98851;;;;573863;246;24051;-84
2022/12/12 07:09:09;;;;;;;4.50;2.90;;;1.10;99.90;0.10;98847;;;;573482;246;24100;-83
2022/12/12 07:11:41;;;;;;;5.10;3.00;;;1.10;99.90;0.10;98857;;;;573271;246;24082;-82
2022/12/12 07:14:06;;;;;;;19.83;7.73;;;1.10;99.90;0.10;98854;;;;571384;246;24072;-85
2022/12/12 07:16:34;;;;;;;14.10;6.90;;;1.00;99.90;0.00;98852;;;;573042;246;24067;-85
2022/12/12 07:19:02;;;;;;;13.57;6.63;;;0.90;99.90;0.00;98854;;;;573192;246;24075;-86
2022/12/12 07:21:30;;;;;;;10.53;5.40;;;0.90;99.90;-0.10;98865;;;;573090;246;24095;-84
2022/12/12 07:23:58;;;;;;;10.07;6.20;;;0.90;99.90;-0.10;98860;;;;573159;246;25109;-84
2022/12/12 07:26:27;;;;;;;6.80;3.97;;;0.90;99.90;0.00;98860;;;;572845;246;24044;-84
2022/12/12 07:28:54;;;;;;;5.93;4.17;;;0.90;99.90;0.00;98857;;;;572705;246;24055;-84
2022/12/12 07:31:25;;;;;;;6.90;5.07;;;0.90;99.90;0.00;98852;;;;572885;246;24067;-85
2022/12/12 07:33:51;;;;;;;10.00;6.63;;;0.90;99.90;0.00;98855;;;;572848;246;24121;-86
2022/12/12 07:36:23;;;;;;;16.17;7.37;;;1.00;99.90;0.10;98860;;;;571596;246;24081;-85
2022/12/12 07:38:47;;;;;;;8.53;4.87;;;1.00;99.90;0.10;98858;;;;572544;246;24060;-86
2022/12/12 07:41:15;;;;;;;5.20;3.53;;;1.10;99.90;0.20;98860;;;;572559;246;24068;-83
2022/12/12 07:43:43;;;;;;;6.47;3.80;;;1.20;99.90;0.30;98854;;;;572659;246;24079;-85
2022/12/12 07:46:10;;;;;;;6.53;3.40;;;1.20;99.90;0.30;98850;;;;572438;246;24115;-85
2022/12/12 07:48:38;;;;;;;5.67;3.47;;;1.30;99.90;0.40;98850;;;;571540;246;24072;-84
2022/12/12 07:51:06;;;;;;;9.30;3.37;;;1.30;99.90;0.40;98851;;;;572529;246;24078;-84
2022/12/12 07:53:34;;;;;;;6.13;4.40;;;1.30;99.90;0.40;98851;;;;572930;246;24047;-85
2022/12/12 07:56:06;;;;;;;5.17;4.10;;;1.30;99.90;0.40;98843;;;;572585;246;24053;-86
2022/12/12 07:58:33;;;;;;;4.50;3.17;;;1.40;99.90;0.50;98841;;;;571227;246;24048;-82
2022/12/12 08:01:01;;;;;;;5.50;3.63;;;1.40;99.90;0.50;98842;;;;580926;246;24083;-84
2022/12/12 08:03:29;;;;;;;4.57;3.23;;;1.50;99.90;0.60;98839;;;;572509;246;24065;-84
2022/12/12 08:05:58;;;;;;;2.80;2.47;;;1.50;99.90;0.60;98843;;;;572638;246;24075;-86
2022/12/12 08:08:25;;;;;;;6.13;2.93;;;1.50;99.90;0.60;98845;;;;572556;246;24061;-86
2022/12/12 08:10:53;;;;;;;5.80;2.77;;;1.50;99.90;0.60;98844;;;;572488;246;24053;-85
2022/12/12 08:13:21;;;;;;;4.73;2.97;;;1.60;99.90;0.70;98842;;;;572591;246;24092;-84
2022/12/12 08:15:49;;;;;;;4.97;3.10;;;1.60;99.90;0.80;98845;;;;573258;246;24047;-85
2022/12/12 08:18:17;;;;;;;4.33;3.07;;;1.70;99.90;0.90;98845;;;;573838;246;24067;-85
2022/12/12 08:20:45;;;;;;;5.63;2.97;;;1.80;99.90;1.00;98851;;;;573447;246;24145;-86
2022/12/12 08:23:13;;;;;;;6.97;4.63;;;1.80;99.90;1.00;98841;;;;573526;246;24066;-86
2022/12/12 08:25:41;;;;;;;8.10;5.17;;;1.90;99.90;1.10;98840;;;;573164;246;24058;-86
2022/12/12 08:28:08;;;;;;;9.57;5.60;;;2.00;99.90;1.20;98849;;;;573099;246;24062;-84
2022/12/12 08:30:36;;;;;;;9.13;5.50;;;2.10;99.90;1.30;98853;;;;573465;246;24194;-82
2022/12/12 08:33:04;;;;;;;8.40;5.00;;;2.20;99.90;1.30;98845;;;;573341;246;24069;-86
2022/12/12 08:35:33;;;;;;;4.87;3.80;;;2.20;99.90;1.30;98855;;;;573174;246;24107;-83
2022/12/12 08:38:04;;;;;;;4.83;3.00;;;2.20;99.90;1.40;98854;;;;573200;246;24063;-83
2022/12/12 08:40:29;;;;;;;3.50;2.73;;;2.30;99.90;1.40;98847;;;;578497;246;24086;-85
2022/12/12 08:42:57;;;;;;;3.90;2.67;;;2.30;99.90;1.40;98855;;;;572838;246;24109;-84
2022/12/12 08:45:25;;;;;;;4.60;2.70;;;2.30;99.90;1.40;98862;;;;572771;246;24103;-82
2022/12/12 08:47:53;;;;;;;6.67;2.63;;;2.30;99.90;1.30;98866;;;;573089;246;24128;-82
2022/12/12 08:50:21;;;;;;;4.50;2.90;;;2.30;99.90;1.30;98859;;;;573197;246;24052;-81
2022/12/12 08:52:49;;;;;;;9.50;6.17;;;2.30;99.90;1.30;98868;;;;572650;246;24068;-81
2022/12/12 08:55:17;;;;;;;9.80;6.27;;;2.30;99.90;1.40;98884;;;;572580;246;24061;-81
2022/12/12 08:57:45;;;;;;;6.43;4.63;;;2.30;99.90;1.30;98872;;;;572461;246;24050;-82
2022/12/12 09:00:13;;;;;;;6.90;4.87;;;2.20;99.90;1.30;98873;;;;567672;246;35130;-82
2022/12/12 09:02:41;;;;;;;3.30;2.13;;;2.20;99.90;1.30;98878;;;;571143;246;24064;-82
2022/12/12 09:05:09;;;;;;;2.93;2.13;;;2.20;99.90;1.20;98874;;;;572627;246;24052;-83
2022/12/12 09:07:36;;;;;;;7.13;4.63;;;2.20;99.90;1.20;98877;;;;581337;246;24076;-83
2022/12/12 09:10:05;;;;;;;6.20;3.57;;;2.10;99.90;1.10;98870;;;;572479;246;24056;-83
2022/12/12 09:12:32;;;;;;;10.20;5.63;;;2.10;99.90;1.10;98876;;;;571173;242;24160;-82
2022/12/12 09:15:00;;;;;;;17.87;10.17;;;2.00;99.90;1.00;98878;;;;572914;246;24062;-82
2022/12/12 09:17:28;;;;;;;13.43;8.53;;;2.00;99.90;1.10;98877;;;;572904;246;25211;-82
2022/12/12 09:19:56;;;;;;;11.13;8.63;;;2.00;99.90;1.10;98866;;;;572870;246;29322;-82
2022/12/12 09:22:24;;;;;;;13.07;9.43;;;2.00;99.90;1.10;98863;;;;572835;246;24134;-82
2022/12/12 09:24:52;;;;;;;10.73;6.07;;;2.10;99.90;1.20;98867;;;;572898;246;24129;-82
2022/12/12 09:27:20;;;;;;;16.13;8.33;;;2.10;99.90;1.20;98864;;;;573643;246;24099;-83
2022/12/12 09:29:48;;;;;;;11.03;7.93;;;2.10;99.90;1.30;98856;;;;574036;246;24040;-83
2022/12/12 09:32:15;;;;;;;11.63;7.30;;;2.20;99.90;1.40;98868;;;;573733;246;24032;-82
2022/12/12 09:34:43;;;;;;;8.93;7.00;;;2.20;99.90;1.40;98875;;;;573709;246;24083;-83
2022/12/12 09:37:11;;;;;;;8.00;6.60;;;2.30;99.90;1.30;98870;;;;573414;246;24039;-83
2022/12/12 09:39:39;;;;;;;7.83;5.37;;;2.30;99.90;1.30;98874;;;;573470;246;24138;-82
2022/12/12 09:42:25;;;;;;;10.20;6.67;;;2.20;99.90;1.20;98877;;;;573522;246;24050;-80
2022/12/12 09:44:53;;;;;;;12.43;8.80;;;2.10;99.90;1.00;98876;;;;573347;246;24097;-79
2022/12/12 09:47:33;;;;;;;8.80;7.17;;;1.90;99.90;1.00;98878;;;;573186;246;24075;-80
2022/12/12 09:50:01;;;;;;;11.80;7.10;;;1.90;99.90;1.00;98873;;;;580303;246;24042;-82
2022/12/12 09:52:29;;;;;;;8.83;6.10;;;1.90;99.90;1.00;98875;;;;571104;246;24087;-80
2022/12/12 09:54:57;;;;;;;7.30;4.90;;;2.00;99.90;1.00;98869;;;;572864;246;24073;-82
2022/12/12 09:57:30;;;;;;;11.47;7.13;;;1.90;99.90;0.90;98867;;;;571550;246;24079;-82
2022/12/12 10:00:09;;;;;;;7.93;6.20;;;1.90;99.90;1.00;98871;;;;571202;246;24069;-82
2022/12/12 10:02:59;;;;;;;6.57;5.03;;;1.90;99.90;1.20;98855;;;;572793;246;24115;-82
2022/12/12 10:05:57;;;;;;;5.53;4.30;;;2.20;99.90;1.30;98867;;;;574063;250;25193;-82
2022/12/12 10:08:30;;;;;;;5.27;3.63;;;2.20;99.90;1.50;98871;;;;563981;248;24084;-82
2022/12/12 10:11:02;;;;;;;4.87;4.17;;;2.30;99.90;1.50;98867;;;;574760;242;24065;-82
2022/12/12 10:13:27;;;;;;;5.10;4.27;;;2.40;99.90;1.60;98868;;;;559320;252;24093;-83
2022/12/12 10:15:57;;;;;;;3.90;3.50;;;2.40;99.90;1.50;98876;;;;572535;246;24084;-81
2022/12/12 10:18:28;;;;;;;4.30;3.50;;;2.40;99.90;1.40;98868;;;;572157;246;24045;-82
2022/12/12 10:20:56;;;;;;;4.50;3.10;;;2.40;99.90;1.40;98865;;;;581248;246;24060;-83
2022/12/12 10:23:35;;;;;;;4.03;3.60;;;2.30;99.90;1.40;98866;;;;572255;246;24096;-82
2022/12/12 10:26:15;;;;;;;4.50;3.47;;;2.30;99.90;1.40;98861;;;;580510;246;24065;-82
2022/12/12 10:28:43;;;;;;;4.10;3.80;;;2.40;99.90;1.40;98859;;;;572892;246;24068;-83
2022/12/12 10:31:32;;;;;;;6.07;4.43;;;2.30;99.90;1.40;98863;;;;571162;246;24062;-83
2022/12/12 10:34:30;;;;;;;3.73;3.40;;;2.40;99.90;1.40;98861;;;;572576;246;24066;-83
2022/12/12 10:37:08;;;;;;;4.77;3.60;;;2.30;99.90;1.40;98857;;;;571637;246;24109;-83
2022/12/12 10:39:53;;;;;;;5.00;4.03;;;2.30;99.90;1.40;98851;;;;573439;246;24059;-84
2022/12/12 10:42:45;;;;;;;4.37;3.90;;;2.30;99.90;1.50;98846;;;;572200;246;24081;-84
2022/12/12 10:45:17;;;;;;;4.83;3.90;;;2.40;99.90;1.50;98857;;;;573581;246;24073;-83
2022/12/12 10:47:48;;;;;;;4.73;3.87;;;2.40;99.90;1.50;98844;;;;571901;246;24064;-82
2022/12/12 10:50:33;;;;;;;5.30;3.43;;;2.40;99.90;1.50;98839;;;;561301;251;24093;-81
2022/12/12 10:53:00;;;;;;;4.40;4.00;;;2.40;99.90;1.60;98830;;;;571313;246;24131;-81
2022/12/12 10:56:02;;;;;;;5.23;3.57;;;2.50;99.90;1.70;98839;;;;573114;246;24094;-83
2022/12/12 10:58:36;;;;;;;11.87;7.00;;;2.60;99.90;1.80;98834;;;;572503;246;24072;-81
2022/12/12 11:01:04;;;;;;;10.67;5.77;;;2.70;99.90;1.90;98835;;;;580818;246;25140;-81
2022/12/12 11:03:41;;;;;;;7.80;5.57;;;2.80;99.90;1.90;98827;;;;571933;246;24081;-82
2022/12/12 11:06:12;;;;;;;8.03;5.07;;;2.80;99.90;2.00;98846;;;;571096;246;24087;-82
2022/12/12 11:08:39;;;;;;;7.07;4.10;;;2.90;99.90;2.00;98832;;;;568632;246;24144;-82
2022/12/12 11:11:07;;;;;;;3.40;2.60;;;2.90;99.90;2.00;98826;;;;571898;246;24079;-82
2022/12/12 11:13:38;;;;;;;6.33;3.87;;;2.90;99.90;2.00;98837;;;;570557;246;24104;-82
2022/12/12 11:16:12;;;;;;;8.17;4.23;;;3.00;99.90;2.00;98823;;;;580611;246;24107;-82
2022/12/12 11:18:40;;;;;;;3.20;2.80;;;3.00;99.90;2.10;98830;;;;580899;246;24068;-82
2022/12/12 11:21:08;;;;;;;6.23;3.50;;;3.10;99.90;2.10;98827;;;;572436;246;24095;-83
2022/12/12 11:23:42;;;;;;;5.50;2.83;;;3.10;99.90;2.20;98825;;;;572219;246;24070;-83
2022/12/12 11:26:16;;;;;;;7.30;3.53;;;3.10;99.90;2.30;98821;;;;580847;246;24093;-84
2022/12/12 11:28:44;;;;;;;6.33;2.93;;;3.20;99.90;2.30;98822;;;;571014;246;26261;-82
2022/12/12 11:31:12;;;;;;;5.87;3.07;;;3.20;99.90;2.30;98825;;;;572342;246;24119;-84
2022/12/12 11:33:55;;;;;;;5.18;3.10;;;3.20;99.90;2.30;98821;;;;567228;246;35129;-82
2022/12/12 11:36:38;;;;;;;9.30;3.13;;;3.30;99.90;2.30;98820;;;;571021;246;24079;-84
2022/12/12 11:39:15;;;;;;;5.53;3.23;;;3.30;99.90;2.30;98820;;;;570791;246;27263;-82
2022/12/12 11:42:01;;;;;;;1.47;1.33;;;3.30;99.90;2.40;98816;;;;580492;246;24068;-85
2022/12/12 11:44:33;;;;;;;9.67;3.63;;;3.30;99.90;2.40;98830;;;;572793;246;24059;-83
2022/12/12 11:47:28;;;;;;;3.03;2.20;;;3.40;99.90;2.40;98816;;;;580812;246;24068;-81
2022/12/12 11:49:59;;;;;;;4.90;2.50;;;3.40;99.90;2.40;98838;;;;571787;245;24108;-82
2022/12/12 11:52:29;;;;;;;2.97;2.43;;;3.40;99.90;2.40;98822;;;;574040;246;24090;-80
2022/12/12 11:55:00;;;;;;;2.93;1.97;;;3.40;99.90;2.30;98833;;;;572214;246;24074;-80
2022/12/12 11:57:34;;;;;;;2.10;1.13;;;3.30;99.90;2.20;98832;;;;561420;251;24183;-81
2022/12/12 12:00:11;;;;;;;1.93;1.57;;;3.20;99.90;2.20;98832;;;;570671;246;24076;-81
2022/12/12 12:02:54;;;;;;;2.60;2.40;;;3.10;99.90;2.20;98830;;;;571914;246;24155;-80